sensor_id;sensor_type;location;lat;lon;timestamp;temperature;humidity
39899;DHT22;25571;47.876;10.642;2023-04-24T00:00:32;10.20;99.90
39899;DHT22;25571;47.876;10.642;2023-04-24T00:02:58;10.10;99.90
39899;DHT22;25571;47.876;10.642;2023-04-24T00:05:25;10.10;99.90
39899;DHT22;25571;47.876;10.642;2023-04-24T00:07:50;10.20;99.90
39899;DHT22;25571;47.876;10.642;2023-04-24T00:10:19;10.20;99.90
39899;DHT22;25571;47.876;10.642;2023-04-24T00:12:45;10.10;99.90
39899;DHT22;25571;47.876;10.642;2023-04-24T00:15:10;10.00;99.90
39899;DHT22;25571;47.876;10.642;2023-04-24T00:17:36;10.00;99.90
39899;DHT22;25571;47.876;10.642;2023-04-24T00:20:02;10.00;99.90
39899;DHT22;25571;47.876;10.642;2023-04-24T00:22:30;9.90;99.90
39899;DHT22;25571;47.876;10.642;2023-04-24T00:24:56;9.80;99.90
39899;DHT22;25571;47.876;10.642;2023-04-24T00:27:22;9.80;99.90
39899;DHT22;25571;47.876;10.642;2023-04-24T00:29:48;9.70;99.90
39899;DHT22;25571;47.876;10.642;2023-04-24T00:32:14;9.70;99.90
39899;DHT22;25571;47.876;10.642;2023-04-24T00:34:40;9.70;99.90
39899;DHT22;25571;47.876;10.642;2023-04-24T00:37:06;9.80;99.90
39899;DHT22;25571;47.876;10.642;2023-04-24T00:39:32;9.70;99.90
39899;DHT22;25571;47.876;10.642;2023-04-24T00:41:57;9.70;99.90
39899;DHT22;25571;47.876;10.642;2023-04-24T00:44:23;9.70;99.90
39899;DHT22;25571;47.876;10.642;2023-04-24T00:46:49;9.70;99.90
39899;DHT22;25571;47.876;10.642;2023-04-24T00:49:20;9.60;99.90
39899;DHT22;25571;47.876;10.642;2023-04-24T00:51:46;9.80;99.90
39899;DHT22;25571;47.876;10.642;2023-04-24T00:54:15;9.70;99.90
39899;DHT22;25571;47.876;10.642;2023-04-24T00:56:42;9.70;99.90
39899;DHT22;25571;47.876;10.642;2023-04-24T00:59:08;9.70;99.90
39899;DHT22;25571;47.876;10.642;2023-04-24T01:01:34;9.70;99.90
39899;DHT22;25571;47.876;10.642;2023-04-24T01:04:00;9.70;99.90
39899;DHT22;25571;47.876;10.642;2023-04-24T01:06:28;9.80;99.90
39899;DHT22;25571;47.876;10.642;2023-04-24T01:08:54;9.80;99.90
39899;DHT22;25571;47.876;10.642;2023-04-24T01:11:21;9.80;99.90
39899;DHT22;25571;47.876;10.642;2023-04-24T01:13:47;9.80;99.90
39899;DHT22;25571;47.876;10.642;2023-04-24T01:16:14;9.80;99.90
39899;DHT22;25571;47.876;10.642;2023-04-24T01:18:40;9.80;99.90
39899;DHT22;25571;47.876;10.642;2023-04-24T01:21:08;9.70;99.90
39899;DHT22;25571;47.876;10.642;2023-04-24T01:23:34;9.60;99.90
39899;DHT22;25571;47.876;10.642;2023-04-24T01:26:00;9.70;99.90
39899;DHT22;25571;47.876;10.642;2023-04-24T01:28:26;9.70;99.90
39899;DHT22;25571;47.876;10.642;2023-04-24T01:30:52;9.80;99.90
39899;DHT22;25571;47.876;10.642;2023-04-24T01:33:20;9.70;99.90
39899;DHT22;25571;47.876;10.642;2023-04-24T01:35:46;9.70;99.90
39899;DHT22;25571;47.876;10.642;2023-04-24T01:38:12;9.70;99.90
39899;DHT22;25571;47.876;10.642;2023-04-24T01:40:38;9.70;99.90
39899;DHT22;25571;47.876;10.642;2023-04-24T01:43:03;9.70;99.90
39899;DHT22;25571;47.876;10.642;2023-04-24T01:45:29;9.90;99.90
39899;DHT22;25571;47.876;10.642;2023-04-24T01:47:55;9.90;99.90
39899;DHT22;25571;47.876;10.642;2023-04-24T01:50:21;9.80;99.90
39899;DHT22;25571;47.876;10.642;2023-04-24T01:52:47;9.70;99.90
39899;DHT22;25571;47.876;10.642;2023-04-24T01:55:12;9.70;99.90
39899;DHT22;25571;47.876;10.642;2023-04-24T01:57:38;9.60;99.90
39899;DHT22;25571;47.876;10.642;2023-04-24T02:00:04;9.70;99.90
39899;DHT22;25571;47.876;10.642;2023-04-24T02:02:31;9.70;99.90
39899;DHT22;25571;47.876;10.642;2023-04-24T02:04:57;9.70;99.90
39899;DHT22;25571;47.876;10.642;2023-04-24T02:07:23;9.80;99.90
39899;DHT22;25571;47.876;10.642;2023-04-24T02:09:48;9.80;99.90
39899;DHT22;25571;47.876;10.642;2023-04-24T02:12:15;9.70;99.90
39899;DHT22;25571;47.876;10.642;2023-04-24T02:14:41;9.80;99.90
39899;DHT22;25571;47.876;10.642;2023-04-24T02:17:07;9.70;99.90
39899;DHT22;25571;47.876;10.642;2023-04-24T02:19:33;9.70;99.90
39899;DHT22;25571;47.876;10.642;2023-04-24T02:21:58;9.70;99.90
39899;DHT22;25571;47.876;10.642;2023-04-24T02:24:24;9.70;99.90
39899;DHT22;25571;47.876;10.642;2023-04-24T02:26:50;9.70;99.90
39899;DHT22;25571;47.876;10.642;2023-04-24T02:29:15;9.60;99.90
39899;DHT22;25571;47.876;10.642;2023-04-24T02:31:41;9.60;99.90
39899;DHT22;25571;47.876;10.642;2023-04-24T02:34:06;9.60;99.90
39899;DHT22;25571;47.876;10.642;2023-04-24T02:36:32;9.70;99.90
39899;DHT22;25571;47.876;10.642;2023-04-24T02:38:58;9.60;99.90
39899;DHT22;25571;47.876;10.642;2023-04-24T02:41:23;9.60;99.90
39899;DHT22;25571;47.876;10.642;2023-04-24T02:43:49;9.60;99.90
39899;DHT22;25571;47.876;10.642;2023-04-24T02:46:15;9.50;99.90
39899;DHT22;25571;47.876;10.642;2023-04-24T02:48:40;9.50;99.90
39899;DHT22;25571;47.876;10.642;2023-04-24T02:51:06;9.40;99.90
39899;DHT22;25571;47.876;10.642;2023-04-24T02:53:32;9.50;99.90
39899;DHT22;25571;47.876;10.642;2023-04-24T02:55:57;9.50;99.90
39899;DHT22;25571;47.876;10.642;2023-04-24T02:58:23;9.60;99.90
39899;DHT22;25571;47.876;10.642;2023-04-24T03:00:49;9.60;99.90
39899;DHT22;25571;47.876;10.642;2023-04-24T03:03:18;9.50;99.90
39899;DHT22;25571;47.876;10.642;2023-04-24T03:05:43;9.50;99.90
39899;DHT22;25571;47.876;10.642;2023-04-24T03:08:09;9.50;99.90
39899;DHT22;25571;47.876;10.642;2023-04-24T03:10:35;9.50;99.90
39899;DHT22;25571;47.876;10.642;2023-04-24T03:13:01;9.50;99.90
39899;DHT22;25571;47.876;10.642;2023-04-24T03:15:26;9.50;99.90
39899;DHT22;25571;47.876;10.642;2023-04-24T03:17:52;9.50;99.90
39899;DHT22;25571;47.876;10.642;2023-04-24T03:20:18;9.50;99.90
39899;DHT22;25571;47.876;10.642;2023-04-24T03:22:43;9.50;99.90
39899;DHT22;25571;47.876;10.642;2023-04-24T03:25:09;9.50;99.90
39899;DHT22;25571;47.876;10.642;2023-04-24T03:27:35;9.40;99.90
39899;DHT22;25571;47.876;10.642;2023-04-24T03:30:01;9.40;99.90
39899;DHT22;25571;47.876;10.642;2023-04-24T03:32:27;9.50;99.90
39899;DHT22;25571;47.876;10.642;2023-04-24T03:34:53;9.50;99.90
39899;DHT22;25571;47.876;10.642;2023-04-24T03:37:19;9.50;99.90
39899;DHT22;25571;47.876;10.642;2023-04-24T03:39:44;9.40;99.90
39899;DHT22;25571;47.876;10.642;2023-04-24T03:42:10;9.50;99.90
39899;DHT22;25571;47.876;10.642;2023-04-24T03:44:36;9.40;99.90
39899;DHT22;25571;47.876;10.642;2023-04-24T03:47:02;9.30;99.90
39899;DHT22;25571;47.876;10.642;2023-04-24T03:49:27;9.30;99.90
39899;DHT22;25571;47.876;10.642;2023-04-24T03:51:53;9.40;99.90
39899;DHT22;25571;47.876;10.642;2023-04-24T03:54:19;9.30;99.90
39899;DHT22;25571;47.876;10.642;2023-04-24T03:56:45;9.30;99.90
39899;DHT22;25571;47.876;10.642;2023-04-24T03:59:11;9.30;99.90
39899;DHT22;25571;47.876;10.642;2023-04-24T04:01:37;9.40;99.90
39899;DHT22;25571;47.876;10.642;2023-04-24T04:04:03;9.40;99.90
39899;DHT22;25571;47.876;10.642;2023-04-24T04:06:29;9.40;99.90
39899;DHT22;25571;47.876;10.642;2023-04-24T04:08:56;9.30;99.90
39899;DHT22;25571;47.876;10.642;2023-04-24T04:11:22;9.20;99.90
39899;DHT22;25571;47.876;10.642;2023-04-24T04:13:48;9.30;99.90
39899;DHT22;25571;47.876;10.642;2023-04-24T04:16:14;9.30;99.90
39899;DHT22;25571;47.876;10.642;2023-04-24T04:18:42;9.20;99.90
39899;DHT22;25571;47.876;10.642;2023-04-24T04:21:08;9.20;99.90
39899;DHT22;25571;47.876;10.642;2023-04-24T04:23:33;9.20;99.90
39899;DHT22;25571;47.876;10.642;2023-04-24T04:25:59;9.30;99.90
39899;DHT22;25571;47.876;10.642;2023-04-24T04:28:25;9.20;99.90
39899;DHT22;25571;47.876;10.642;2023-04-24T04:30:50;9.20;99.90
39899;DHT22;25571;47.876;10.642;2023-04-24T04:33:20;9.20;99.90
39899;DHT22;25571;47.876;10.642;2023-04-24T04:35:46;9.20;99.90
39899;DHT22;25571;47.876;10.642;2023-04-24T04:38:14;9.30;99.90
39899;DHT22;25571;47.876;10.642;2023-04-24T04:40:40;9.20;99.90
39899;DHT22;25571;47.876;10.642;2023-04-24T04:43:06;9.20;99.90
39899;DHT22;25571;47.876;10.642;2023-04-24T04:45:31;9.20;99.90
39899;DHT22;25571;47.876;10.642;2023-04-24T04:47:58;9.20;99.90
39899;DHT22;25571;47.876;10.642;2023-04-24T04:50:26;9.20;99.90
39899;DHT22;25571;47.876;10.642;2023-04-24T04:52:52;9.20;99.90
39899;DHT22;25571;47.876;10.642;2023-04-24T04:55:17;9.20;99.90
39899;DHT22;25571;47.876;10.642;2023-04-24T04:57:48;9.20;99.90
39899;DHT22;25571;47.876;10.642;2023-04-24T05:00:14;9.30;99.90
39899;DHT22;25571;47.876;10.642;2023-04-24T05:02:40;9.30;99.90
39899;DHT22;25571;47.876;10.642;2023-04-24T05:05:07;9.30;99.90
39899;DHT22;25571;47.876;10.642;2023-04-24T05:07:33;9.30;99.90
39899;DHT22;25571;47.876;10.642;2023-04-24T05:09:58;9.30;99.90
39899;DHT22;25571;47.876;10.642;2023-04-24T05:12:24;9.20;99.90
39899;DHT22;25571;47.876;10.642;2023-04-24T05:14:50;9.30;99.90
39899;DHT22;25571;47.876;10.642;2023-04-24T05:17:15;9.30;99.90
39899;DHT22;25571;47.876;10.642;2023-04-24T05:19:42;9.30;99.90
39899;DHT22;25571;47.876;10.642;2023-04-24T05:22:07;9.30;99.90
39899;DHT22;25571;47.876;10.642;2023-04-24T05:24:35;9.30;99.90
39899;DHT22;25571;47.876;10.642;2023-04-24T05:27:01;9.30;99.90
39899;DHT22;25571;47.876;10.642;2023-04-24T05:29:27;9.20;99.90
39899;DHT22;25571;47.876;10.642;2023-04-24T05:31:53;9.30;99.90
39899;DHT22;25571;47.876;10.642;2023-04-24T05:34:19;9.40;99.90
39899;DHT22;25571;47.876;10.642;2023-04-24T05:36:44;9.50;99.90
39899;DHT22;25571;47.876;10.642;2023-04-24T05:39:10;9.50;99.90
39899;DHT22;25571;47.876;10.642;2023-04-24T05:41:35;9.50;99.90
39899;DHT22;25571;47.876;10.642;2023-04-24T05:44:01;9.50;99.90
39899;DHT22;25571;47.876;10.642;2023-04-24T05:46:27;9.70;99.90
39899;DHT22;25571;47.876;10.642;2023-04-24T05:48:52;9.60;99.90
39899;DHT22;25571;47.876;10.642;2023-04-24T05:51:18;9.60;99.90
39899;DHT22;25571;47.876;10.642;2023-04-24T05:53:43;9.70;99.90
39899;DHT22;25571;47.876;10.642;2023-04-24T05:56:09;9.60;99.90
39899;DHT22;25571;47.876;10.642;2023-04-24T05:58:35;9.60;99.90
39899;DHT22;25571;47.876;10.642;2023-04-24T06:01:00;9.70;99.90
39899;DHT22;25571;47.876;10.642;2023-04-24T06:03:27;9.70;99.90
39899;DHT22;25571;47.876;10.642;2023-04-24T06:05:53;9.70;99.90
39899;DHT22;25571;47.876;10.642;2023-04-24T06:08:19;9.70;99.90
39899;DHT22;25571;47.876;10.642;2023-04-24T06:10:44;9.70;99.90
39899;DHT22;25571;47.876;10.642;2023-04-24T06:13:10;9.80;99.90
39899;DHT22;25571;47.876;10.642;2023-04-24T06:15:37;9.70;99.90
39899;DHT22;25571;47.876;10.642;2023-04-24T06:18:02;9.80;99.90
39899;DHT22;25571;47.876;10.642;2023-04-24T06:20:28;9.90;99.90
39899;DHT22;25571;47.876;10.642;2023-04-24T06:22:54;9.90;99.90
39899;DHT22;25571;47.876;10.642;2023-04-24T06:25:20;10.00;99.90
39899;DHT22;25571;47.876;10.642;2023-04-24T06:27:45;9.90;99.90
39899;DHT22;25571;47.876;10.642;2023-04-24T06:30:11;9.90;99.90
39899;DHT22;25571;47.876;10.642;2023-04-24T06:32:37;9.80;99.90
39899;DHT22;25571;47.876;10.642;2023-04-24T06:35:03;9.80;99.90
39899;DHT22;25571;47.876;10.642;2023-04-24T06:37:29;10.00;99.90
39899;DHT22;25571;47.876;10.642;2023-04-24T06:39:55;10.00;99.90
39899;DHT22;25571;47.876;10.642;2023-04-24T06:42:20;10.10;99.90
39899;DHT22;25571;47.876;10.642;2023-04-24T06:44:47;10.20;99.90
39899;DHT22;25571;47.876;10.642;2023-04-24T06:47:13;10.20;99.90
39899;DHT22;25571;47.876;10.642;2023-04-24T06:49:39;10.30;99.90
39899;DHT22;25571;47.876;10.642;2023-04-24T06:52:05;10.70;99.90
39899;DHT22;25571;47.876;10.642;2023-04-24T06:54:32;10.60;99.90
39899;DHT22;25571;47.876;10.642;2023-04-24T06:56:58;11.00;99.90
39899;DHT22;25571;47.876;10.642;2023-04-24T06:59:24;11.00;99.90
39899;DHT22;25571;47.876;10.642;2023-04-24T07:01:50;11.00;99.90
39899;DHT22;25571;47.876;10.642;2023-04-24T07:04:19;11.10;99.90
39899;DHT22;25571;47.876;10.642;2023-04-24T07:06:48;11.10;99.90
39899;DHT22;25571;47.876;10.642;2023-04-24T07:09:17;11.00;99.90
39899;DHT22;25571;47.876;10.642;2023-04-24T07:11:44;11.00;99.90
39899;DHT22;25571;47.876;10.642;2023-04-24T07:14:10;10.90;99.90
39899;DHT22;25571;47.876;10.642;2023-04-24T07:16:35;11.00;99.90
39899;DHT22;25571;47.876;10.642;2023-04-24T07:19:01;10.80;99.90
39899;DHT22;25571;47.876;10.642;2023-04-24T07:21:26;10.70;99.90
39899;DHT22;25571;47.876;10.642;2023-04-24T07:23:53;10.40;99.90
39899;DHT22;25571;47.876;10.642;2023-04-24T07:26:20;10.30;99.90
39899;DHT22;25571;47.876;10.642;2023-04-24T07:28:46;10.00;99.90
39899;DHT22;25571;47.876;10.642;2023-04-24T07:31:11;9.90;99.90
39899;DHT22;25571;47.876;10.642;2023-04-24T07:33:37;9.90;99.90
39899;DHT22;25571;47.876;10.642;2023-04-24T07:36:03;9.90;99.90
39899;DHT22;25571;47.876;10.642;2023-04-24T07:38:32;10.00;99.90
39899;DHT22;25571;47.876;10.642;2023-04-24T07:40:57;10.20;99.90
39899;DHT22;25571;47.876;10.642;2023-04-24T07:43:23;10.40;99.90
39899;DHT22;25571;47.876;10.642;2023-04-24T07:45:50;10.20;99.90
39899;DHT22;25571;47.876;10.642;2023-04-24T07:48:15;10.20;99.90
39899;DHT22;25571;47.876;10.642;2023-04-24T07:50:43;10.30;99.90
39899;DHT22;25571;47.876;10.642;2023-04-24T07:53:09;10.40;99.90
39899;DHT22;25571;47.876;10.642;2023-04-24T07:55:35;10.60;99.90
39899;DHT22;25571;47.876;10.642;2023-04-24T07:58:01;11.10;99.90
39899;DHT22;25571;47.876;10.642;2023-04-24T08:00:26;11.50;99.90
39899;DHT22;25571;47.876;10.642;2023-04-24T08:02:52;12.10;99.90
39899;DHT22;25571;47.876;10.642;2023-04-24T08:05:17;12.10;99.90
39899;DHT22;25571;47.876;10.642;2023-04-24T08:07:43;12.10;99.90
39899;DHT22;25571;47.876;10.642;2023-04-24T08:10:10;12.10;99.90
39899;DHT22;25571;47.876;10.642;2023-04-24T08:12:37;12.30;99.90
39899;DHT22;25571;47.876;10.642;2023-04-24T08:15:03;12.60;99.90
39899;DHT22;25571;47.876;10.642;2023-04-24T08:17:29;12.70;99.90
39899;DHT22;25571;47.876;10.642;2023-04-24T08:19:55;12.50;99.90
39899;DHT22;25571;47.876;10.642;2023-04-24T08:22:27;13.00;99.90
39899;DHT22;25571;47.876;10.642;2023-04-24T08:24:52;13.60;99.90
39899;DHT22;25571;47.876;10.642;2023-04-24T08:27:18;13.70;99.90
39899;DHT22;25571;47.876;10.642;2023-04-24T08:29:44;14.40;99.90
39899;DHT22;25571;47.876;10.642;2023-04-24T08:32:09;15.60;99.90
39899;DHT22;25571;47.876;10.642;2023-04-24T08:34:35;16.70;99.90
39899;DHT22;25571;47.876;10.642;2023-04-24T08:37:01;17.90;99.90
39899;DHT22;25571;47.876;10.642;2023-04-24T08:39:26;18.50;99.90
39899;DHT22;25571;47.876;10.642;2023-04-24T08:41:52;18.20;99.90
39899;DHT22;25571;47.876;10.642;2023-04-24T08:44:19;18.40;99.90
39899;DHT22;25571;47.876;10.642;2023-04-24T08:46:47;18.90;99.10
39899;DHT22;25571;47.876;10.642;2023-04-24T08:49:14;17.90;99.20
39899;DHT22;25571;47.876;10.642;2023-04-24T08:51:41;18.90;97.50
39899;DHT22;25571;47.876;10.642;2023-04-24T08:54:08;20.10;93.60
39899;DHT22;25571;47.876;10.642;2023-04-24T08:56:34;20.10;92.10
39899;DHT22;25571;47.876;10.642;2023-04-24T08:59:04;19.50;89.80
39899;DHT22;25571;47.876;10.642;2023-04-24T09:01:32;18.40;91.80
39899;DHT22;25571;47.876;10.642;2023-04-24T09:04:03;19.30;91.90
39899;DHT22;25571;47.876;10.642;2023-04-24T09:06:30;20.10;91.00
39899;DHT22;25571;47.876;10.642;2023-04-24T09:09:02;21.60;83.40
39899;DHT22;25571;47.876;10.642;2023-04-24T09:11:30;22.00;81.70
39899;DHT22;25571;47.876;10.642;2023-04-24T09:13:56;21.50;80.50
39899;DHT22;25571;47.876;10.642;2023-04-24T09:16:22;20.40;80.80
39899;DHT22;25571;47.876;10.642;2023-04-24T09:18:50;19.10;81.90
39899;DHT22;25571;47.876;10.642;2023-04-24T09:21:15;18.10;86.80
39899;DHT22;25571;47.876;10.642;2023-04-24T09:23:41;17.10;88.30
39899;DHT22;25571;47.876;10.642;2023-04-24T09:26:09;16.70;91.40
39899;DHT22;25571;47.876;10.642;2023-04-24T09:28:37;16.60;91.20
39899;DHT22;25571;47.876;10.642;2023-04-24T09:31:12;16.80;91.90
39899;DHT22;25571;47.876;10.642;2023-04-24T09:33:39;16.70;92.10
39899;DHT22;25571;47.876;10.642;2023-04-24T09:36:05;17.20;92.00
39899;DHT22;25571;47.876;10.642;2023-04-24T09:38:36;17.10;92.00
39899;DHT22;25571;47.876;10.642;2023-04-24T09:41:06;17.50;90.10
39899;DHT22;25571;47.876;10.642;2023-04-24T09:43:32;17.50;90.30
39899;DHT22;25571;47.876;10.642;2023-04-24T09:46:00;17.50;90.40
39899;DHT22;25571;47.876;10.642;2023-04-24T09:48:36;17.30;89.70
39899;DHT22;25571;47.876;10.642;2023-04-24T09:51:04;16.80;90.30
39899;DHT22;25571;47.876;10.642;2023-04-24T09:53:30;17.10;90.40
39899;DHT22;25571;47.876;10.642;2023-04-24T09:56:01;17.40;90.70
39899;DHT22;25571;47.876;10.642;2023-04-24T09:58:28;17.30;90.20
39899;DHT22;25571;47.876;10.642;2023-04-24T10:00:55;17.30;90.70
39899;DHT22;25571;47.876;10.642;2023-04-24T10:03:24;17.60;90.20
39899;DHT22;25571;47.876;10.642;2023-04-24T10:05:52;17.00;89.00
39899;DHT22;25571;47.876;10.642;2023-04-24T10:08:18;16.70;90.90
39899;DHT22;25571;47.876;10.642;2023-04-24T10:10:44;16.30;91.10
39899;DHT22;25571;47.876;10.642;2023-04-24T10:13:11;15.80;92.20
39899;DHT22;25571;47.876;10.642;2023-04-24T10:15:37;15.30;93.00
39899;DHT22;25571;47.876;10.642;2023-04-24T10:18:07;14.50;93.80
39899;DHT22;25571;47.876;10.642;2023-04-24T10:20:35;13.90;95.10
39899;DHT22;25571;47.876;10.642;2023-04-24T10:23:01;13.90;95.50
39899;DHT22;25571;47.876;10.642;2023-04-24T10:25:32;14.50;95.80
39899;DHT22;25571;47.876;10.642;2023-04-24T10:27:59;15.00;94.70
39899;DHT22;25571;47.876;10.642;2023-04-24T10:30:35;15.50;93.40
39899;DHT22;25571;47.876;10.642;2023-04-24T10:33:07;15.70;93.30
39899;DHT22;25571;47.876;10.642;2023-04-24T10:35:38;15.80;93.90
39899;DHT22;25571;47.876;10.642;2023-04-24T10:38:15;15.60;92.30
39899;DHT22;25571;47.876;10.642;2023-04-24T10:40:42;15.70;93.20
39899;DHT22;25571;47.876;10.642;2023-04-24T10:43:09;15.80;91.90
39899;DHT22;25571;47.876;10.642;2023-04-24T10:45:39;15.80;92.90
39899;DHT22;25571;47.876;10.642;2023-04-24T10:48:05;15.60;93.30
39899;DHT22;25571;47.876;10.642;2023-04-24T10:53:21;16.20;93.30
39899;DHT22;25571;47.876;10.642;2023-04-24T10:56:02;16.30;91.20
39899;DHT22;25571;47.876;10.642;2023-04-24T10:58:41;15.60;92.90
39899;DHT22;25571;47.876;10.642;2023-04-24T11:01:32;15.00;92.90
39899;DHT22;25571;47.876;10.642;2023-04-24T11:04:02;15.10;92.30
39899;DHT22;25571;47.876;10.642;2023-04-24T11:09:08;15.80;91.70
39899;DHT22;25571;47.876;10.642;2023-04-24T11:11:35;15.40;92.20
39899;DHT22;25571;47.876;10.642;2023-04-24T11:14:03;15.30;92.50
39899;DHT22;25571;47.876;10.642;2023-04-24T11:21:43;15.50;92.20
39899;DHT22;25571;47.876;10.642;2023-04-24T11:27:20;15.50;93.00
39899;DHT22;25571;47.876;10.642;2023-04-24T11:29:47;15.70;94.20
39899;DHT22;25571;47.876;10.642;2023-04-24T11:34:49;16.20;93.20
39899;DHT22;25571;47.876;10.642;2023-04-24T11:37:16;16.30;91.90
39899;DHT22;25571;47.876;10.642;2023-04-24T11:39:42;16.30;91.10
39899;DHT22;25571;47.876;10.642;2023-04-24T11:42:08;16.40;91.20
39899;DHT22;25571;47.876;10.642;2023-04-24T11:44:35;16.30;91.40
39899;DHT22;25571;47.876;10.642;2023-04-24T11:47:06;16.50;91.70
39899;DHT22;25571;47.876;10.642;2023-04-24T11:49:33;16.50;91.20
39899;DHT22;25571;47.876;10.642;2023-04-24T11:52:00;16.60;90.40
39899;DHT22;25571;47.876;10.642;2023-04-24T11:54:26;16.40;90.50
39899;DHT22;25571;47.876;10.642;2023-04-24T11:56:52;16.40;90.50
39899;DHT22;25571;47.876;10.642;2023-04-24T11:59:18;16.30;90.70
39899;DHT22;25571;47.876;10.642;2023-04-24T12:01:47;16.20;90.70
39899;DHT22;25571;47.876;10.642;2023-04-24T12:04:14;16.30;90.80
39899;DHT22;25571;47.876;10.642;2023-04-24T12:06:40;15.80;90.30
39899;DHT22;25571;47.876;10.642;2023-04-24T12:09:23;15.50;90.50
39899;DHT22;25571;47.876;10.642;2023-04-24T12:11:58;15.40;90.60
39899;DHT22;25571;47.876;10.642;2023-04-24T12:14:24;15.00;92.00
39899;DHT22;25571;47.876;10.642;2023-04-24T12:16:50;14.30;92.20
39899;DHT22;25571;47.876;10.642;2023-04-24T12:19:21;13.90;90.90
39899;DHT22;25571;47.876;10.642;2023-04-24T12:22:04;13.60;93.20
39899;DHT22;25571;47.876;10.642;2023-04-24T12:24:30;13.30;95.60
39899;DHT22;25571;47.876;10.642;2023-04-24T12:26:57;13.50;96.70
39899;DHT22;25571;47.876;10.642;2023-04-24T12:29:24;13.70;95.90
39899;DHT22;25571;47.876;10.642;2023-04-24T12:31:50;14.00;95.80
39899;DHT22;25571;47.876;10.642;2023-04-24T12:34:23;14.00;95.60
39899;DHT22;25571;47.876;10.642;2023-04-24T12:36:50;14.10;95.40
39899;DHT22;25571;47.876;10.642;2023-04-24T12:39:19;14.10;96.10
39899;DHT22;25571;47.876;10.642;2023-04-24T12:41:55;14.30;95.80
39899;DHT22;25571;47.876;10.642;2023-04-24T12:44:34;14.10;95.60
39899;DHT22;25571;47.876;10.642;2023-04-24T12:47:01;14.20;95.40
39899;DHT22;25571;47.876;10.642;2023-04-24T12:49:29;14.30;92.90
39899;DHT22;25571;47.876;10.642;2023-04-24T12:51:55;14.50;91.80
39899;DHT22;25571;47.876;10.642;2023-04-24T12:54:22;14.30;91.00
39899;DHT22;25571;47.876;10.642;2023-04-24T12:56:47;14.40;90.00
39899;DHT22;25571;47.876;10.642;2023-04-24T12:59:13;14.30;87.90
39899;DHT22;25571;47.876;10.642;2023-04-24T13:01:38;14.50;89.00
39899;DHT22;25571;47.876;10.642;2023-04-24T13:04:05;14.60;87.70
39899;DHT22;25571;47.876;10.642;2023-04-24T13:06:31;14.70;88.00
39899;DHT22;25571;47.876;10.642;2023-04-24T13:08:57;14.60;87.40
39899;DHT22;25571;47.876;10.642;2023-04-24T13:11:23;14.90;89.50
39899;DHT22;25571;47.876;10.642;2023-04-24T13:13:50;14.90;85.10
39899;DHT22;25571;47.876;10.642;2023-04-24T13:16:15;15.00;86.80
39899;DHT22;25571;47.876;10.642;2023-04-24T13:18:41;14.70;84.70
39899;DHT22;25571;47.876;10.642;2023-04-24T13:21:06;14.30;85.90
39899;DHT22;25571;47.876;10.642;2023-04-24T13:23:32;14.30;86.90
39899;DHT22;25571;47.876;10.642;2023-04-24T13:25:57;14.70;87.80
39899;DHT22;25571;47.876;10.642;2023-04-24T13:28:26;14.50;87.60
39899;DHT22;25571;47.876;10.642;2023-04-24T13:30:52;14.60;85.40
39899;DHT22;25571;47.876;10.642;2023-04-24T13:33:17;14.50;86.30
39899;DHT22;25571;47.876;10.642;2023-04-24T13:35:43;14.40;86.40
39899;DHT22;25571;47.876;10.642;2023-04-24T13:38:09;14.50;87.50
39899;DHT22;25571;47.876;10.642;2023-04-24T13:40:34;14.50;88.00
39899;DHT22;25571;47.876;10.642;2023-04-24T13:43:00;14.30;84.60
39899;DHT22;25571;47.876;10.642;2023-04-24T13:45:26;14.20;85.00
39899;DHT22;25571;47.876;10.642;2023-04-24T13:47:52;14.20;85.30
39899;DHT22;25571;47.876;10.642;2023-04-24T13:50:19;14.20;87.10
39899;DHT22;25571;47.876;10.642;2023-04-24T13:52:45;14.30;83.50
39899;DHT22;25571;47.876;10.642;2023-04-24T13:55:11;14.30;82.50
39899;DHT22;25571;47.876;10.642;2023-04-24T13:57:36;14.20;83.30
39899;DHT22;25571;47.876;10.642;2023-04-24T14:00:03;14.30;83.80
39899;DHT22;25571;47.876;10.642;2023-04-24T14:02:29;14.10;85.40
39899;DHT22;25571;47.876;10.642;2023-04-24T14:04:55;14.30;87.90
39899;DHT22;25571;47.876;10.642;2023-04-24T14:07:21;14.30;87.60
39899;DHT22;25571;47.876;10.642;2023-04-24T14:09:46;14.40;84.90
39899;DHT22;25571;47.876;10.642;2023-04-24T14:12:12;14.60;83.30
39899;DHT22;25571;47.876;10.642;2023-04-24T14:14:38;14.80;82.00
39899;DHT22;25571;47.876;10.642;2023-04-24T14:17:03;14.60;82.90
39899;DHT22;25571;47.876;10.642;2023-04-24T14:19:29;14.40;83.00
39899;DHT22;25571;47.876;10.642;2023-04-24T14:21:54;14.30;83.70
39899;DHT22;25571;47.876;10.642;2023-04-24T14:24:23;14.20;82.50
39899;DHT22;25571;47.876;10.642;2023-04-24T14:26:48;14.30;84.70
39899;DHT22;25571;47.876;10.642;2023-04-24T14:29:14;14.30;85.50
39899;DHT22;25571;47.876;10.642;2023-04-24T14:31:40;14.10;87.30
39899;DHT22;25571;47.876;10.642;2023-04-24T14:34:06;14.20;86.60
39899;DHT22;25571;47.876;10.642;2023-04-24T14:36:31;14.30;86.60
39899;DHT22;25571;47.876;10.642;2023-04-24T14:38:57;14.40;85.00
39899;DHT22;25571;47.876;10.642;2023-04-24T14:41:22;14.10;85.40
39899;DHT22;25571;47.876;10.642;2023-04-24T14:43:48;13.80;91.10
39899;DHT22;25571;47.876;10.642;2023-04-24T14:46:13;13.60;93.10
39899;DHT22;25571;47.876;10.642;2023-04-24T14:48:39;13.40;93.30
39899;DHT22;25571;47.876;10.642;2023-04-24T14:51:05;13.30;92.10
39899;DHT22;25571;47.876;10.642;2023-04-24T14:53:30;13.10;93.10
39899;DHT22;25571;47.876;10.642;2023-04-24T14:55:56;13.10;94.50
39899;DHT22;25571;47.876;10.642;2023-04-24T14:58:22;12.90;93.60
39899;DHT22;25571;47.876;10.642;2023-04-24T15:00:47;12.90;92.80
39899;DHT22;25571;47.876;10.642;2023-04-24T15:03:17;13.00;94.30
39899;DHT22;25571;47.876;10.642;2023-04-24T15:05:43;13.20;92.80
39899;DHT22;25571;47.876;10.642;2023-04-24T15:08:09;13.40;94.00
39899;DHT22;25571;47.876;10.642;2023-04-24T15:10:34;13.10;93.80
39899;DHT22;25571;47.876;10.642;2023-04-24T15:13:00;13.20;93.50
39899;DHT22;25571;47.876;10.642;2023-04-24T15:15:26;13.20;93.60
39899;DHT22;25571;47.876;10.642;2023-04-24T15:17:51;13.10;93.00
39899;DHT22;25571;47.876;10.642;2023-04-24T15:20:17;13.00;92.80
39899;DHT22;25571;47.876;10.642;2023-04-24T15:22:43;13.20;92.40
39899;DHT22;25571;47.876;10.642;2023-04-24T15:25:09;13.10;92.10
39899;DHT22;25571;47.876;10.642;2023-04-24T15:27:45;12.90;91.80
39899;DHT22;25571;47.876;10.642;2023-04-24T15:30:11;12.90;92.30
39899;DHT22;25571;47.876;10.642;2023-04-24T15:32:37;13.00;92.10
39899;DHT22;25571;47.876;10.642;2023-04-24T15:35:04;13.10;92.30